Time;durP1;ratioP1;P1;durP2;ratioP2;P2;SDS_P1;SDS_P2;PMS_P1;PMS_P2;Temp;Humidity;BMP_temperature;BMP_pressure;BME280_temperature;BME280_humidity;BME280_pressure;Samples;Min_cycle;Max_cycle;Signal;HPM_P1;HPM_P2
2021/09/09 00:00:17;;;;;;;15.4;12.9;;;;;;;10.79;100;99020.03;;;;
2021/09/09 00:10:16;;;;;;;13.5;12.1;;;;;;;10.65;100;99024.59;;;;
2021/09/09 00:20:15;;;;;;;21.3;12.2;;;;;;;10.56;100;99024.47;;;;
2021/09/09 00:30:14;;;;;;;18.6;11.8;;;;;;;10.6;100;99028.17;;;;
2021/09/09 00:40:13;;;;;;;16.9;14.1;;;;;;;10.63;100;99015.98;;;;
2021/09/09 00:50:12;;;;;;;14.4;10.8;;;;;;;10.51;100;99024.57;;;;
2021/09/09 01:00:11;;;;;;;17.4;10.8;;;;;;;10.56;100;99031.75;;;;
2021/09/09 01:10:10;;;;;;;16.2;11.1;;;;;;;10.57;100;99020.69;;;;
2021/09/09 01:20:09;;;;;;;15;10.2;;;;;;;10.48;100;99022.44;;;;
2021/09/09 01:30:08;;;;;;;13.5;11.5;;;;;;;10.34;100;99031.61;;;;
2021/09/09 01:40:07;;;;;;;14.5;10.4;;;;;;;10;100;99034.52;;;;
2021/09/09 01:50:06;;;;;;;15.7;10.4;;;;;;;9.92;100;99027.92;;;;
2021/09/09 02:00:05;;;;;;;12.6;9.2;;;;;;;9.83;100;99028.84;;;;
2021/09/09 02:20:02;;;;;;;12.6;8.9;;;;;;;9.58;100;99028.11;;;;
2021/09/09 02:30:01;;;;;;;12.7;9.1;;;;;;;9.63;100;99016.48;;;;
2021/09/09 02:40:00;;;;;;;13;8.8;;;;;;;9.51;100;99008.06;;;;
2021/09/09 02:49:59;;;;;;;10.1;8.9;;;;;;;9.35;100;99004.76;;;;
2021/09/09 02:59:57;;;;;;;11.4;7.4;;;;;;;9.37;100;99005.25;;;;
2021/09/09 03:09:56;;;;;;;11.1;9.7;;;;;;;9.26;100;99011.07;;;;
2021/09/09 03:19:55;;;;;;;11.6;9.9;;;;;;;9.12;100;99008.28;;;;
2021/09/09 03:29:54;;;;;;;16.5;13.7;;;;;;;9.06;100;99010.22;;;;
2021/09/09 03:39:52;;;;;;;13.9;12;;;;;;;9.04;100;99019.66;;;;
2021/09/09 03:49:51;;;;;;;14.3;10.7;;;;;;;9;100;99003.3;;;;
2021/09/09 03:59:50;;;;;;;11.5;9.3;;;;;;;8.88;100;99005.61;;;;
2021/09/09 04:09:48;;;;;;;12.9;10.9;;;;;;;8.82;100;99008.61;;;;
2021/09/09 04:19:47;;;;;;;17;10.8;;;;;;;8.81;100;99002.46;;;;
2021/09/09 04:29:46;;;;;;;15.7;12.4;;;;;;;8.85;100;99013.44;;;;
2021/09/09 04:39:44;;;;;;;17;10.9;;;;;;;8.96;100;99018.41;;;;
2021/09/09 04:49:43;;;;;;;18.6;11.3;;;;;;;9.17;100;99020.84;;;;
2021/09/09 04:59:42;;;;;;;10.5;9.2;;;;;;;9.45;100;99018.07;;;;
2021/09/09 05:09:40;;;;;;;10.6;7.9;;;;;;;9.81;100;99014.89;;;;
2021/09/09 05:19:39;;;;;;;9.9;8.2;;;;;;;10.23;100;99019.39;;;;
2021/09/09 05:29:38;;;;;;;9.4;7.5;;;;;;;10.67;100;99010.8;;;;
2021/09/09 05:39:37;;;;;;;12.3;8.1;;;;;;;11.14;100;98999.66;;;;
2021/09/09 05:49:36;;;;;;;10.2;8.2;;;;;;;11.71;100;98995.48;;;;
2021/09/09 05:59:35;;;;;;;13;10.5;;;;;;;12.17;100;99003.32;;;;
2021/09/09 06:09:34;;;;;;;14.2;12;;;;;;;12.65;100;98998.04;;;;
2021/09/09 06:19:33;;;;;;;17.3;13.4;;;;;;;12.96;100;99001.52;;;;
2021/09/09 06:29:32;;;;;;;19.4;14.3;;;;;;;13.55;100;99004.73;;;;
2021/09/09 06:39:31;;;;;;;16.1;12.1;;;;;;;14.01;100;99002.22;;;;
2021/09/09 06:49:31;;;;;;;16.8;12.3;;;;;;;14.52;100;98997.86;;;;
2021/09/09 06:59:30;;;;;;;21.6;12.2;;;;;;;14.99;100;98995.95;;;;
2021/09/09 07:09:30;;;;;;;26.1;12.3;;;;;;;15.54;100;98988.49;;;;
2021/09/09 07:19:30;;;;;;;25.8;12.7;;;;;;;16.18;100;98990.04;;;;
2021/09/09 07:29:30;;;;;;;13.7;10.4;;;;;;;16.8;100;98998.86;;;;
2021/09/09 07:39:34;;;;;;;10.7;9.1;;;;;;;17.24;100;99004.58;;;;
2021/09/09 07:49:30;;;;;;;11.3;9;;;;;;;17.79;100;99004.77;;;;
2021/09/09 07:59:30;;;;;;;10.4;7.6;;;;;;;18.37;100;98997.05;;;;
2021/09/09 08:09:30;;;;;;;9.3;7;;;;;;;19.03;100;99006.23;;;;
2021/09/09 08:19:30;;;;;;;7.3;5.7;;;;;;;19.39;100;98991.48;;;;
2021/09/09 08:29:30;;;;;;;7.2;4.6;;;;;;;19.73;100;98989.13;;;;
2021/09/09 08:39:30;;;;;;;9.6;5.6;;;;;;;20.09;100;98995;;;;
2021/09/09 08:49:31;;;;;;;8.9;5;;;;;;;20.58;100;98986.96;;;;
2021/09/09 08:59:30;;;;;;;7.3;5.3;;;;;;;20.48;100;98978.55;;;;
2021/09/09 09:09:33;;;;;;;9.2;5.4;;;;;;;20.81;100;98976.03;;;;
2021/09/09 09:19:32;;;;;;;8;4.7;;;;;;;21.23;100;98973.23;;;;
2021/09/09 09:29:31;;;;;;;13.3;4.3;;;;;;;21.18;100;98962.56;;;;
2021/09/09 09:39:30;;;;;;;6.4;3.9;;;;;;;21.66;81.4834;98966.39;;;;
2021/09/09 09:49:31;;;;;;;8.3;4.4;;;;;;;21.67;74.40527;98959.75;;;;
2021/09/09 09:59:30;;;;;;;7.2;3.9;;;;;;;22.01;66.16602;98961.39;;;;
2021/09/09 10:09:31;;;;;;;6.5;3.9;;;;;;;22.21;60.37891;98951.05;;;;
2021/09/09 10:19:36;;;;;;;6.3;4.9;;;;;;;22.23;65.77832;98939.67;;;;
2021/09/09 10:29:47;;;;;;;8.4;5;;;;;;;22.42;72.15137;98934.01;;;;
2021/09/09 10:39:37;;;;;;;10.5;6.2;;;;;;;22.73;71.68848;98927.26;;;;
2021/09/09 10:49:33;;;;;;;11.6;5.1;;;;;;;22.81;70.56445;98918.67;;;;
2021/09/09 10:59:48;;;;;;;8.4;4.3;;;;;;;23.12;65.66504;98905.58;;;;
2021/09/09 11:09:34;;;;;;;7.4;4.3;;;;;;;23.28;68.31055;98893.1;;;;
2021/09/09 11:19:34;;;;;;;8.8;5.4;;;;;;;23.66;71.09277;98883.49;;;;
2021/09/09 11:29:35;;;;;;;7.2;4.3;;;;;;;23.81;69.25293;98879.6;;;;
2021/09/09 11:39:36;;;;;;;9.6;4.5;;;;;;;23.79;63.84863;98873.7;;;;
2021/09/09 11:49:36;;;;;;;15.7;5;;;;;;;23.86;64.39551;98872.94;;;;
2021/09/09 11:59:37;;;;;;;7.2;3.8;;;;;;;24.01;59.44043;98853.33;;;;
2021/09/09 12:09:40;;;;;;;6.4;3.9;;;;;;;23.93;59.7793;98856.45;;;;
2021/09/09 12:19:40;;;;;;;5.7;2.9;;;;;;;24.2;60.82227;98843.94;;;;
2021/09/09 12:29:42;;;;;;;7.1;4;;;;;;;24.41;61.40039;98832.14;;;;
2021/09/09 12:39:40;;;;;;;8.7;4.4;;;;;;;24.13;57.61816;98827.4;;;;
2021/09/09 12:49:42;;;;;;;7.7;4;;;;;;;24.21;61.11426;98811.67;;;;
2021/09/09 12:59:41;;;;;;;7;3.6;;;;;;;24.3;63.875;98801.84;;;;
2021/09/09 13:09:42;;;;;;;6.1;3.9;;;;;;;24.27;62.12891;98793.57;;;;
2021/09/09 13:19:42;;;;;;;7.7;4.2;;;;;;;24.71;63.47656;98784.9;;;;
2021/09/09 13:29:43;;;;;;;7.2;4;;;;;;;24.76;62.77051;98776.21;;;;
2021/09/09 13:39:44;;;;;;;8.2;5.1;;;;;;;25.06;63.7832;98764.75;;;;
2021/09/09 13:49:45;;;;;;;9.8;4.3;;;;;;;25.15;64.14648;98754.07;;;;
2021/09/09 13:59:45;;;;;;;10.8;4.2;;;;;;;25.3;62.23535;98755.59;;;;
2021/09/09 14:09:46;;;;;;;7.2;3.8;;;;;;;25.24;66.58398;98752.45;;;;
2021/09/09 14:19:47;;;;;;;7;4.7;;;;;;;25.42;67.69824;98747.64;;;;
2021/09/09 14:29:48;;;;;;;8.8;4.3;;;;;;;25.57;65.50684;98742.08;;;;
2021/09/09 14:39:48;;;;;;;10.1;4.3;;;;;;;25.27;65.49902;98735.09;;;;
2021/09/09 14:49:49;;;;;;;5.9;4.2;;;;;;;25.47;66.54785;98725.16;;;;
2021/09/09 14:59:50;;;;;;;7.6;4.7;;;;;;;25.37;66.13379;98723.2;;;;
2021/09/09 15:09:51;;;;;;;10.1;5.3;;;;;;;26.95;65.46094;98711.3;;;;
2021/09/09 15:19:52;;;;;;;7.4;4.8;;;;;;;29.48;57.97168;98724.11;;;;
2021/09/09 15:29:53;;;;;;;11;5.7;;;;;;;30.5;55.09863;98720.91;;;;
2021/09/09 15:39:54;;;;;;;10.4;5;;;;;;;30.54;54.34277;98716.03;;;;
2021/09/09 15:49:56;;;;;;;9.2;5.1;;;;;;;31.28;51.59668;98702.81;;;;
2021/09/09 16:00:00;;;;;;;7.9;5.5;;;;;;;31.21;50.73145;98694.66;;;;
2021/09/09 16:10:01;;;;;;;11;5.9;;;;;;;31.32;49.94434;98686.77;;;;
2021/09/09 16:20:01;;;;;;;7.8;4.8;;;;;;;31.34;49.19629;98681.52;;;;
2021/09/09 16:30:03;;;;;;;9.8;6.6;;;;;;;30.79;49.33887;98676.38;;;;
2021/09/09 16:40:04;;;;;;;9.8;7.3;;;;;;;27.29;59.11914;98666.97;;;;
2021/09/09 16:50:05;;;;;;;11.8;7.6;;;;;;;25.16;68.83984;98648.07;;;;
2021/09/09 17:00:13;;;;;;;13.6;9.2;;;;;;;23.3;77.56836;98647.91;;;;
2021/09/09 17:10:07;;;;;;;10.2;9.1;;;;;;;21.88;85.49805;98649.14;;;;
2021/09/09 17:20:07;;;;;;;13.9;8.6;;;;;;;20.7;93.55762;98646.36;;;;
2021/09/09 17:30:09;;;;;;;20.6;8.9;;;;;;;19.64;100;98650.27;;;;
2021/09/09 17:40:08;;;;;;;11.7;9.2;;;;;;;18.78;100;98657.23;;;;
2021/09/09 17:50:08;;;;;;;17.9;10;;;;;;;18.09;100;98667;;;;
2021/09/09 18:00:08;;;;;;;20.4;11.9;;;;;;;17.38;100;98651.63;;;;
2021/09/09 18:10:08;;;;;;;17.1;13.9;;;;;;;16.85;100;98663.01;;;;
2021/09/09 18:20:07;;;;;;;16.8;13.5;;;;;;;16.45;100;98671.17;;;;
2021/09/09 18:30:07;;;;;;;19.2;15.5;;;;;;;16.14;100;98676.43;;;;
2021/09/09 18:40:07;;;;;;;24.5;17.9;;;;;;;15.79;100;98670.66;;;;
2021/09/09 18:50:06;;;;;;;34;27.9;;;;;;;15.47;100;98680.44;;;;
2021/09/09 19:00:06;;;;;;;26.9;21.8;;;;;;;15.19;100;98682.18;;;;
2021/09/09 19:10:05;;;;;;;30.4;25.7;;;;;;;14.87;100;98683.75;;;;
2021/09/09 19:20:06;;;;;;;32.2;25.6;;;;;;;14.54;100;98695.34;;;;
2021/09/09 19:30:04;;;;;;;38.8;31.3;;;;;;;14.25;100;98700.79;;;;
2021/09/09 19:40:04;;;;;;;41.5;33;;;;;;;13.98;100;98706.69;;;;
2021/09/09 19:50:03;;;;;;;25.1;21.7;;;;;;;13.74;100;98704.56;;;;
2021/09/09 20:00:03;;;;;;;28.1;19.7;;;;;;;13.51;100;98701.28;;;;
2021/09/09 20:10:02;;;;;;;26.7;19.5;;;;;;;13.25;100;98711.4;;;;
2021/09/09 20:20:01;;;;;;;23.7;18.6;;;;;;;12.94;100;98719.69;;;;
2021/09/09 20:30:00;;;;;;;26.5;19;;;;;;;12.64;100;98720.63;;;;
2021/09/09 20:40:00;;;;;;;23.9;18.9;;;;;;;12.44;100;98727.45;;;;
2021/09/09 20:49:59;;;;;;;18.4;13.9;;;;;;;12.3;100;98725.98;;;;
2021/09/09 20:59:58;;;;;;;15.8;13.8;;;;;;;12.09;100;98737.38;;;;
2021/09/09 21:09:57;;;;;;;21.8;13.5;;;;;;;12.13;100;98736.75;;;;
2021/09/09 21:19:56;;;;;;;16.8;14;;;;;;;11.96;100;98735.59;;;;
2021/09/09 21:29:55;;;;;;;14.2;12.3;;;;;;;11.85;100;98753.19;;;;
2021/09/09 21:39:54;;;;;;;15.3;11.3;;;;;;;11.77;100;98753.93;;;;
2021/09/09 21:49:53;;;;;;;15.8;11.6;;;;;;;11.67;100;98754.17;;;;
2021/09/09 21:59:52;;;;;;;15.3;12.5;;;;;;;11.47;100;98766.3;;;;
2021/09/09 22:09:51;;;;;;;12.8;9.9;;;;;;;11.29;100;98772.69;;;;
2021/09/09 22:19:50;;;;;;;24.5;12.8;;;;;;;11.31;100;98775.09;;;;
2021/09/09 22:29:49;;;;;;;16.9;14.6;;;;;;;11.12;100;98769.86;;;;
2021/09/09 22:39:48;;;;;;;12.5;10.2;;;;;;;11.03;100;98769.02;;;;
2021/09/09 22:49:47;;;;;;;13.3;10.6;;;;;;;10.81;100;98758.19;;;;
2021/09/09 22:59:46;;;;;;;17.7;12.5;;;;;;;10.59;100;98761.63;;;;
2021/09/09 23:09:47;;;;;;;18.2;11.4;;;;;;;10.33;100;98758.7;;;;
2021/09/09 23:19:44;;;;;;;19;11.5;;;;;;;10.09;100;98756.2;;;;
2021/09/09 23:29:43;;;;;;;13.7;11.9;;;;;;;10.01;100;98754.2;;;;
2021/09/09 23:39:41;;;;;;;19.3;14.5;;;;;;;10.05;100;98759.78;;;;
2021/09/09 23:49:40;;;;;;;18.5;14.5;;;;;;;9.95;100;98758.09;;;;
2021/09/09 23:59:39;;;;;;;20.8;16.5;;;;;;;10.09;100;98758.09;;;;
